createdAt,value
2018-01-12T00:00:30.936Z,35.17
2018-01-12T00:02:58.156Z,38.13
2018-01-12T00:05:25.372Z,36.77
2018-01-12T00:07:52.621Z,36.30
2018-01-12T00:10:19.846Z,38.07
2018-01-12T00:12:47.072Z,36.53
2018-01-12T00:15:14.281Z,36.73
2018-01-12T00:17:41.505Z,35.80
2018-01-12T00:20:08.740Z,40.00
2018-01-12T00:22:35.972Z,50.43
2018-01-12T00:25:03.233Z,37.70
2018-01-12T00:27:30.452Z,40.27
2018-01-12T00:29:57.668Z,42.10
2018-01-12T00:32:24.901Z,37.37
2018-01-12T00:34:52.203Z,32.67
2018-01-12T00:37:19.417Z,38.40
2018-01-12T00:39:46.462Z,37.90
2018-01-12T00:42:13.516Z,36.77
2018-01-12T00:44:40.543Z,47.00
2018-01-12T00:47:07.585Z,39.97
2018-01-12T00:49:34.629Z,46.40
2018-01-12T00:52:01.667Z,49.53
2018-01-12T00:54:28.710Z,48.03
2018-01-12T00:56:55.773Z,46.70
2018-01-12T00:59:22.808Z,50.70
2018-01-12T01:01:50.025Z,37.83
2018-01-12T01:04:17.268Z,44.17
2018-01-12T01:06:44.501Z,41.80
2018-01-12T01:09:11.732Z,38.30
2018-01-12T01:11:38.953Z,31.83
2018-01-12T01:14:06.182Z,38.30
2018-01-12T01:16:33.405Z,33.63
2018-01-12T01:19:00.643Z,35.73
2018-01-12T01:21:27.860Z,37.20
2018-01-12T01:23:55.096Z,41.80
2018-01-12T01:26:22.309Z,34.30
2018-01-12T01:28:49.532Z,41.63
2018-01-12T01:31:16.837Z,36.90
2018-01-12T01:33:44.065Z,35.57
2018-01-12T01:36:11.284Z,34.00
2018-01-12T01:38:38.508Z,27.23
2018-01-12T01:41:05.757Z,34.37
2018-01-12T01:43:32.989Z,38.47
2018-01-12T01:46:00.205Z,31.70
2018-01-12T01:48:32.876Z,32.53
2018-01-12T01:51:00.312Z,34.73
2018-01-12T01:53:27.793Z,36.57
2018-01-12T01:55:55.021Z,33.50
2018-01-12T01:58:22.243Z,39.77
2018-01-12T02:00:49.462Z,34.57
2018-01-12T02:03:16.692Z,36.40
2018-01-12T02:05:43.916Z,36.63
2018-01-12T02:08:11.695Z,39.13
2018-01-12T02:10:38.913Z,35.37
2018-01-12T02:13:06.137Z,36.03
2018-01-12T02:15:33.373Z,32.37
2018-01-12T02:18:00.813Z,37.70
2018-01-12T02:20:28.366Z,33.67
2018-01-12T02:22:55.600Z,31.47
2018-01-12T02:25:22.814Z,31.47
2018-01-12T02:27:50.045Z,33.57
2018-01-12T02:30:17.273Z,34.87
2018-01-12T02:32:44.509Z,30.13
2018-01-12T02:35:11.737Z,34.37
2018-01-12T02:37:38.961Z,39.60
2018-01-12T02:40:11.104Z,31.93
2018-01-12T02:42:38.320Z,34.47
2018-01-12T02:45:09.877Z,35.50
2018-01-12T02:47:37.095Z,35.83
2018-01-12T02:50:06.313Z,42.03
2018-01-12T02:52:35.073Z,48.77
2018-01-12T02:55:02.293Z,41.87
2018-01-12T02:57:29.525Z,40.10
2018-01-12T02:59:56.776Z,40.20
2018-01-12T03:02:24.004Z,45.90
2018-01-12T03:04:51.229Z,40.70
2018-01-12T03:07:18.441Z,41.90
2018-01-12T03:09:45.678Z,44.77
2018-01-12T03:12:12.890Z,38.70
2018-01-12T03:14:40.120Z,39.30
2018-01-12T03:17:08.189Z,48.57
2018-01-12T03:19:35.429Z,48.63
2018-01-12T03:22:02.648Z,44.47
2018-01-12T03:24:29.866Z,44.23
2018-01-12T03:26:57.611Z,45.53
2018-01-12T03:29:24.867Z,42.10
2018-01-12T03:31:52.092Z,45.37
2018-01-12T03:34:19.312Z,39.67
2018-01-12T03:36:46.544Z,37.87
2018-01-12T03:39:13.779Z,39.27
2018-01-12T03:41:41.001Z,49.17
2018-01-12T03:44:08.219Z,43.10
2018-01-12T03:46:35.449Z,38.93
2018-01-12T03:49:02.673Z,46.37
2018-01-12T03:51:29.717Z,45.37
2018-01-12T03:53:56.937Z,43.43
2018-01-12T03:56:24.159Z,44.97
2018-01-12T03:58:51.373Z,47.20
2018-01-12T04:01:18.605Z,41.03
2018-01-12T04:03:45.828Z,47.63
2018-01-12T04:06:13.036Z,38.67
2018-01-12T04:08:40.274Z,36.80
2018-01-12T04:11:07.681Z,40.73
2018-01-12T04:13:34.901Z,35.77
2018-01-12T04:16:02.128Z,41.83
2018-01-12T04:18:29.167Z,37.67
2018-01-12T04:20:56.600Z,39.47
2018-01-12T04:23:23.829Z,40.37
2018-01-12T04:25:51.041Z,31.13
2018-01-12T04:28:18.256Z,41.53
2018-01-12T04:30:45.469Z,40.83
2018-01-12T04:33:12.911Z,44.60
2018-01-12T04:35:40.141Z,39.10
2018-01-12T04:38:07.357Z,32.07
2018-01-12T04:40:34.577Z,38.00
2018-01-12T04:43:01.797Z,38.23
2018-01-12T04:45:29.225Z,35.50
2018-01-12T04:47:56.448Z,41.60
2018-01-12T04:50:23.665Z,34.63
2018-01-12T04:52:50.893Z,37.53
2018-01-12T04:55:18.120Z,35.63
2018-01-12T04:57:45.345Z,38.00
2018-01-12T05:00:12.584Z,37.63
2018-01-12T05:02:39.819Z,39.07
2018-01-12T05:05:07.915Z,35.47
2018-01-12T05:07:35.141Z,38.53
2018-01-12T05:10:02.797Z,39.93
2018-01-12T05:12:30.022Z,37.33
2018-01-12T05:14:57.266Z,38.97
2018-01-12T05:17:24.513Z,39.63
2018-01-12T05:19:51.746Z,43.03
2018-01-12T05:22:18.978Z,38.90
2018-01-12T05:24:46.224Z,38.43
2018-01-12T05:27:13.466Z,45.50
2018-01-12T05:29:40.696Z,35.30
2018-01-12T05:32:08.165Z,42.13
2018-01-12T05:34:36.032Z,38.73
2018-01-12T05:37:03.292Z,39.43
2018-01-12T05:39:30.504Z,47.63
2018-01-12T05:41:57.741Z,33.37
2018-01-12T05:44:24.974Z,37.87
2018-01-12T05:46:52.204Z,41.33
2018-01-12T05:49:19.501Z,41.20
2018-01-12T05:51:47.343Z,41.43
2018-01-12T05:54:14.572Z,44.27
2018-01-12T05:56:41.881Z,44.93
2018-01-12T05:59:09.097Z,35.50
2018-01-12T06:01:41.877Z,46.97
2018-01-12T06:04:16.745Z,46.87
2018-01-12T06:06:43.977Z,37.40
2018-01-12T06:09:11.304Z,35.30
2018-01-12T06:11:38.549Z,51.30
2018-01-12T06:14:05.778Z,44.70
2018-01-12T06:16:32.994Z,42.37
2018-01-12T06:19:00.217Z,43.10
2018-01-12T06:21:27.428Z,48.83
2018-01-12T06:23:54.658Z,42.43
2018-01-12T06:26:21.899Z,51.33
2018-01-12T06:28:49.125Z,45.43
2018-01-12T06:31:16.344Z,41.00
2018-01-12T06:33:43.584Z,50.53
2018-01-12T06:36:10.801Z,44.20
2018-01-12T06:38:38.025Z,48.10
2018-01-12T06:41:05.240Z,43.50
2018-01-12T06:43:32.472Z,40.83
2018-01-12T06:46:00.337Z,42.83
2018-01-12T06:48:27.609Z,54.47
2018-01-12T06:50:54.842Z,48.23
2018-01-12T06:53:22.056Z,54.60
2018-01-12T06:55:49.280Z,38.83
2018-01-12T06:58:16.510Z,42.00
2018-01-12T07:00:43.724Z,47.20
2018-01-12T07:03:10.944Z,56.70
2018-01-12T07:05:39.154Z,41.00
2018-01-12T07:08:06.384Z,54.73
2018-01-12T07:10:33.605Z,51.53
2018-01-12T07:13:00.817Z,36.80
2018-01-12T07:15:28.043Z,42.33
2018-01-12T07:17:55.251Z,59.50
2018-01-12T07:20:28.134Z,54.73
2018-01-12T07:23:01.069Z,52.07
2018-01-12T07:25:28.729Z,45.13
2018-01-12T07:27:55.957Z,43.50
2018-01-12T07:30:23.179Z,44.73
2018-01-12T07:32:50.405Z,40.20
2018-01-12T07:35:17.633Z,65.87
2018-01-12T07:37:44.861Z,43.10
2018-01-12T07:40:12.096Z,47.50
2018-01-12T07:42:39.312Z,45.13
2018-01-12T07:45:06.551Z,49.70
2018-01-12T07:47:33.757Z,46.60
2018-01-12T07:50:01.206Z,47.83
2018-01-12T07:52:28.336Z,46.63
2018-01-12T07:54:55.610Z,45.63
2018-01-12T07:57:22.857Z,44.43
2018-01-12T07:59:50.073Z,43.70
2018-01-12T08:02:23.572Z,54.13
2018-01-12T08:04:50.792Z,41.60
2018-01-12T08:07:18.008Z,45.80
2018-01-12T08:09:45.232Z,44.77
2018-01-12T08:12:12.457Z,45.67
2018-01-12T08:14:39.674Z,43.40
2018-01-12T08:17:08.032Z,47.93
2018-01-12T08:19:35.772Z,50.27
2018-01-12T08:22:03.014Z,45.90
2018-01-12T08:24:30.262Z,45.90
2018-01-12T08:26:57.517Z,46.30
2018-01-12T08:29:24.819Z,55.57
2018-01-12T08:31:52.204Z,44.93
2018-01-12T08:34:19.772Z,48.10
2018-01-12T08:36:47.070Z,42.90
2018-01-12T08:39:14.367Z,50.87
2018-01-12T08:41:41.653Z,42.30
2018-01-12T08:44:08.967Z,44.07
2018-01-12T08:46:36.234Z,46.73
2018-01-12T08:49:03.529Z,39.70
2018-01-12T08:51:30.888Z,45.07
2018-01-12T08:53:58.137Z,48.93
2018-01-12T08:56:25.365Z,47.63
2018-01-12T08:58:52.592Z,52.93
2018-01-12T09:01:19.821Z,50.73
2018-01-12T09:03:47.053Z,42.47
2018-01-12T09:06:14.751Z,43.03
2018-01-12T09:08:42.009Z,42.80
2018-01-12T09:11:09.409Z,55.13
2018-01-12T09:13:42.116Z,49.43
2018-01-12T09:16:09.038Z,52.70
2018-01-12T09:18:41.736Z,41.20
2018-01-12T09:21:14.512Z,47.27
2018-01-12T09:23:41.400Z,54.07
2018-01-12T09:26:08.636Z,42.27
2018-01-12T09:28:35.881Z,38.40
2018-01-12T09:31:04.049Z,41.57
2018-01-12T09:33:31.300Z,49.20
2018-01-12T09:35:58.553Z,46.73
2018-01-12T09:38:40.321Z,47.10
2018-01-12T09:41:07.545Z,46.60
2018-01-12T09:43:34.767Z,41.50
2018-01-12T09:46:02.014Z,44.00
2018-01-12T09:48:30.430Z,40.87
2018-01-12T09:50:57.642Z,40.23
2018-01-12T09:53:24.866Z,40.80
2018-01-12T09:55:52.080Z,43.20
2018-01-12T09:58:19.312Z,38.53
2018-01-12T10:00:46.208Z,40.80
2018-01-12T10:03:13.428Z,46.33
2018-01-12T10:05:40.656Z,45.93
2018-01-12T10:08:13.330Z,47.40
2018-01-12T10:10:40.564Z,36.97
2018-01-12T10:13:07.779Z,39.97
2018-01-12T10:15:35.009Z,43.33
2018-01-12T10:18:01.910Z,38.70
2018-01-12T10:20:29.684Z,49.80
2018-01-12T10:22:56.931Z,48.80
2018-01-12T10:25:24.161Z,43.23
2018-01-12T10:27:51.403Z,40.50
2018-01-12T10:30:24.223Z,42.17
2018-01-12T10:32:57.042Z,51.13
2018-01-12T10:35:23.947Z,44.27
2018-01-12T10:37:51.161Z,47.10
2018-01-12T10:40:24.044Z,39.17
2018-01-12T10:42:51.256Z,48.80
2018-01-12T10:45:18.177Z,38.97
2018-01-12T10:47:57.909Z,44.97
2018-01-12T10:50:24.841Z,42.00
2018-01-12T10:52:52.058Z,37.67
2018-01-12T10:55:19.296Z,40.50
2018-01-12T10:57:46.523Z,40.03
2018-01-12T11:00:19.363Z,37.80
2018-01-12T11:02:46.592Z,36.27
2018-01-12T11:05:13.829Z,45.10
2018-01-12T11:07:41.055Z,37.97
2018-01-12T11:10:12.170Z,42.13
2018-01-12T11:12:39.410Z,37.47
2018-01-12T11:15:12.922Z,39.27
2018-01-12T11:17:41.095Z,40.03
2018-01-12T11:20:12.753Z,37.03
2018-01-12T11:22:39.978Z,40.90
2018-01-12T11:25:09.347Z,43.17
2018-01-12T11:27:37.168Z,42.60
2018-01-12T11:30:11.827Z,42.57
2018-01-12T11:32:39.045Z,47.23
2018-01-12T11:35:13.444Z,48.83
2018-01-12T11:37:40.665Z,42.83
2018-01-12T11:40:09.606Z,46.13
2018-01-12T11:42:36.832Z,52.03
2018-01-12T11:45:09.135Z,44.80
2018-01-12T11:47:36.384Z,50.07
2018-01-12T11:50:04.886Z,44.63
2018-01-12T11:52:34.551Z,45.30
2018-01-12T11:55:02.502Z,43.03
2018-01-12T11:57:30.007Z,38.30
2018-01-12T11:59:57.228Z,42.93
2018-01-12T12:02:24.267Z,38.60
2018-01-12T12:04:52.164Z,37.33
2018-01-12T12:07:19.381Z,42.77
2018-01-12T12:09:46.627Z,48.63
2018-01-12T12:12:13.857Z,45.00
2018-01-12T12:14:41.082Z,38.47
2018-01-12T12:17:08.345Z,42.30
2018-01-12T12:19:35.577Z,37.07
2018-01-12T12:22:02.792Z,44.87
2018-01-12T12:24:30.374Z,42.37
2018-01-12T12:26:58.001Z,39.17
2018-01-12T12:29:25.838Z,37.60
2018-01-12T12:31:53.312Z,46.30
2018-01-12T12:34:20.581Z,44.57
2018-01-12T12:36:47.804Z,183.73
2018-01-12T12:39:15.016Z,41.63
2018-01-12T12:41:42.268Z,36.07
2018-01-12T12:44:09.485Z,42.17
2018-01-12T12:46:36.704Z,38.60
2018-01-12T12:49:03.932Z,43.60
2018-01-12T12:51:31.165Z,47.30
2018-01-12T12:53:58.392Z,44.67
2018-01-12T12:56:25.945Z,43.70
2018-01-12T12:58:53.161Z,42.53
2018-01-12T13:01:20.196Z,42.87
2018-01-12T13:03:47.677Z,45.67
2018-01-12T13:06:14.904Z,47.30
2018-01-12T13:08:42.168Z,59.37
2018-01-12T13:11:09.661Z,44.40
2018-01-12T13:13:36.875Z,38.60
2018-01-12T13:16:04.116Z,48.50
2018-01-12T13:18:31.337Z,42.63
2018-01-12T13:20:58.556Z,43.07
2018-01-12T13:23:25.776Z,43.03
2018-01-12T13:25:53.000Z,40.10
2018-01-12T13:28:20.808Z,50.30
2018-01-12T13:30:48.033Z,40.20
2018-01-12T13:33:15.297Z,44.77
2018-01-12T13:35:43.371Z,47.53
2018-01-12T13:38:10.596Z,48.10
2018-01-12T13:40:37.835Z,41.80
2018-01-12T13:43:05.054Z,45.30
2018-01-12T13:45:32.282Z,47.77
2018-01-12T13:47:59.508Z,42.53
2018-01-12T13:50:26.735Z,44.50
2018-01-12T13:52:53.966Z,52.30
2018-01-12T13:55:21.184Z,58.20
2018-01-12T13:57:48.421Z,40.27
2018-01-12T14:00:15.658Z,46.00
2018-01-12T14:02:42.877Z,37.03
2018-01-12T14:05:10.196Z,44.53
2018-01-12T14:07:37.441Z,53.80
2018-01-12T14:10:06.048Z,41.23
2018-01-12T14:12:33.309Z,38.03
2018-01-12T14:15:00.534Z,42.60
2018-01-12T14:17:27.784Z,44.80
2018-01-12T14:19:55.020Z,49.13
2018-01-12T14:22:22.396Z,42.70
2018-01-12T14:24:49.634Z,51.93
2018-01-12T14:27:16.852Z,53.40
2018-01-12T14:29:44.092Z,50.13
2018-01-12T14:32:11.309Z,44.87
2018-01-12T14:34:38.541Z,47.53
2018-01-12T14:37:05.762Z,53.07
2018-01-12T14:39:32.986Z,44.70
2018-01-12T14:42:00.244Z,53.67
2018-01-12T14:44:27.475Z,49.17
2018-01-12T14:46:54.971Z,52.93
2018-01-12T14:49:23.311Z,52.50
2018-01-12T14:51:50.536Z,50.87
2018-01-12T14:54:18.136Z,50.53
2018-01-12T14:56:45.356Z,52.57
2018-01-12T14:59:12.592Z,54.90
2018-01-12T15:01:39.819Z,45.17
2018-01-12T15:04:07.050Z,50.00
2018-01-12T15:06:35.040Z,52.33
2018-01-12T15:09:02.449Z,40.70
2018-01-12T15:11:29.679Z,49.83
2018-01-12T15:13:56.918Z,43.40
2018-01-12T15:16:23.968Z,48.93
2018-01-12T15:18:50.861Z,41.57
2018-01-12T15:21:18.653Z,47.27
2018-01-12T15:23:45.889Z,41.63
2018-01-12T15:26:13.108Z,34.43
2018-01-12T15:28:40.377Z,41.07
2018-01-12T15:31:07.773Z,42.70
2018-01-12T15:33:35.004Z,38.70
2018-01-12T15:36:02.118Z,36.60
2018-01-12T15:38:29.333Z,36.37
2018-01-12T15:40:56.584Z,41.63
2018-01-12T15:43:23.806Z,40.50
2018-01-12T15:45:51.558Z,43.13
2018-01-12T15:48:18.933Z,44.90
2018-01-12T15:50:46.191Z,43.30
2018-01-12T15:53:13.690Z,40.20
2018-01-12T15:55:40.913Z,53.50
2018-01-12T15:58:08.966Z,46.87
2018-01-12T16:00:36.196Z,40.50
2018-01-12T16:03:03.427Z,47.10
2018-01-12T16:05:30.666Z,36.60
2018-01-12T16:07:57.894Z,39.90
2018-01-12T16:10:25.176Z,44.50
2018-01-12T16:12:52.410Z,57.03
2018-01-12T16:15:19.658Z,45.67
2018-01-12T16:17:46.884Z,48.50
2018-01-12T16:20:14.148Z,47.40
2018-01-12T16:22:41.369Z,46.13
2018-01-12T16:25:08.606Z,45.33
2018-01-12T16:27:35.828Z,48.43
2018-01-12T16:30:03.102Z,53.87
2018-01-12T16:32:30.365Z,48.37
2018-01-12T16:34:57.604Z,55.60
2018-01-12T16:37:24.840Z,57.23
2018-01-12T16:39:52.089Z,52.43
2018-01-12T16:42:19.328Z,45.73
2018-01-12T16:44:48.152Z,55.43
2018-01-12T16:47:15.376Z,52.70
2018-01-12T16:49:42.651Z,61.50
2018-01-12T16:52:10.051Z,58.17
2018-01-12T16:54:37.880Z,51.07
2018-01-12T16:57:05.101Z,59.03
2018-01-12T16:59:32.528Z,55.47
2018-01-12T17:01:59.747Z,56.07
2018-01-12T17:04:26.957Z,62.00
2018-01-12T17:06:54.176Z,52.23
2018-01-12T17:09:21.402Z,52.30
2018-01-12T17:11:49.735Z,64.80
2018-01-12T17:14:16.982Z,59.83
2018-01-12T17:16:44.236Z,59.03
2018-01-12T17:19:11.500Z,56.87
2018-01-12T17:21:38.760Z,52.07
2018-01-12T17:24:05.989Z,57.67
2018-01-12T17:26:33.212Z,50.80
2018-01-12T17:29:00.429Z,57.27
2018-01-12T17:31:27.672Z,57.03
2018-01-12T17:33:54.931Z,63.43
2018-01-12T17:36:22.155Z,64.13
2018-01-12T17:38:49.385Z,64.80
2018-01-12T17:41:16.609Z,60.23
2018-01-12T17:43:44.451Z,53.90
2018-01-12T17:46:11.681Z,61.63
2018-01-12T17:48:38.927Z,57.43
2018-01-12T17:51:06.152Z,51.63
2018-01-12T17:53:33.374Z,63.50
2018-01-12T17:56:00.600Z,59.27
2018-01-12T17:58:27.832Z,74.67
2018-01-12T18:00:55.077Z,69.27
2018-01-12T18:03:22.328Z,66.77
2018-01-12T18:05:49.963Z,67.27
2018-01-12T18:08:17.196Z,74.70
2018-01-12T18:10:44.420Z,71.80
2018-01-12T18:13:11.496Z,64.23
2018-01-12T18:15:38.729Z,70.67
2018-01-12T18:18:07.702Z,64.80
2018-01-12T18:20:34.940Z,73.53
2018-01-12T18:23:02.156Z,70.43
2018-01-12T18:25:29.394Z,61.50
2018-01-12T18:27:56.283Z,72.00
2018-01-12T18:30:24.377Z,67.43
2018-01-12T18:32:51.625Z,65.57
2018-01-12T18:35:18.872Z,71.97
2018-01-12T18:37:46.140Z,68.93
2018-01-12T18:40:13.197Z,70.63
2018-01-12T18:42:40.444Z,67.00
2018-01-12T18:45:07.734Z,77.10
2018-01-12T18:47:34.962Z,61.43
2018-01-12T18:50:02.684Z,70.50
2018-01-12T18:52:29.909Z,59.30
2018-01-12T18:54:57.740Z,63.90
2018-01-12T18:57:24.960Z,63.97
2018-01-12T18:59:52.177Z,71.47
2018-01-12T19:02:19.400Z,66.77
2018-01-12T19:04:46.641Z,69.60
2018-01-12T19:07:13.885Z,68.97
2018-01-12T19:09:41.153Z,73.23
2018-01-12T19:12:08.396Z,72.77
2018-01-12T19:14:35.672Z,70.47
2018-01-12T19:17:02.899Z,78.43
2018-01-12T19:19:30.118Z,68.63
2018-01-12T19:21:57.341Z,72.13
2018-01-12T19:24:24.548Z,80.23
2018-01-12T19:26:51.787Z,68.47
2018-01-12T19:29:19.031Z,74.43
2018-01-12T19:31:46.264Z,65.13
2018-01-12T19:34:13.496Z,69.13
2018-01-12T19:36:40.724Z,72.33
2018-01-12T19:39:07.944Z,70.37
2018-01-12T19:41:36.005Z,84.10
2018-01-12T19:44:03.252Z,72.43
2018-01-12T19:46:30.461Z,80.50
2018-01-12T19:48:57.698Z,78.67
2018-01-12T19:51:24.945Z,76.33
2018-01-12T19:53:53.049Z,69.40
2018-01-12T19:56:20.273Z,70.13
2018-01-12T19:58:47.497Z,67.70
2018-01-12T20:01:14.708Z,72.10
2018-01-12T20:03:42.330Z,76.37
2018-01-12T20:06:09.761Z,68.30
2018-01-12T20:08:36.993Z,66.27
2018-01-12T20:11:04.216Z,54.67
2018-01-12T20:13:31.446Z,63.53
2018-01-12T20:15:58.680Z,65.50
2018-01-12T20:18:25.893Z,64.50
2018-01-12T20:20:53.149Z,57.60
2018-01-12T20:23:20.401Z,67.83
2018-01-12T20:25:47.629Z,59.37
2018-01-12T20:28:14.918Z,71.77
2018-01-12T20:30:42.129Z,65.53
2018-01-12T20:33:09.340Z,66.03
2018-01-12T20:35:36.589Z,74.27
2018-01-12T20:38:03.844Z,65.80
2018-01-12T20:40:31.138Z,67.90
2018-01-12T20:42:58.353Z,66.10
2018-01-12T20:45:26.513Z,66.10
2018-01-12T20:47:53.735Z,62.63
2018-01-12T20:50:20.992Z,60.87
2018-01-12T20:52:48.216Z,67.00
2018-01-12T20:55:15.456Z,80.57
2018-01-12T20:57:42.671Z,62.40
2018-01-12T21:00:09.899Z,61.47
2018-01-12T21:02:37.133Z,70.23
2018-01-12T21:05:04.509Z,64.30
2018-01-12T21:07:31.732Z,69.57
2018-01-12T21:09:58.980Z,63.43
2018-01-12T21:12:26.229Z,61.63
2018-01-12T21:14:53.661Z,57.50
2018-01-12T21:17:20.877Z,54.30
2018-01-12T21:19:48.104Z,58.03
2018-01-12T21:22:15.841Z,58.47
2018-01-12T21:24:43.638Z,53.47
2018-01-12T21:27:10.869Z,50.30
2018-01-12T21:29:38.116Z,57.47
2018-01-12T21:32:05.339Z,53.87
2018-01-12T21:34:32.557Z,56.50
2018-01-12T21:37:01.309Z,54.17
2018-01-12T21:39:31.676Z,50.03
2018-01-12T21:41:58.918Z,53.43
2018-01-12T21:44:26.140Z,55.20
2018-01-12T21:46:53.370Z,51.87
2018-01-12T21:49:20.608Z,64.17
2018-01-12T21:51:47.840Z,49.37
2018-01-12T21:54:14.790Z,64.13
2018-01-12T21:56:42.717Z,64.07
2018-01-12T21:59:09.936Z,56.87
2018-01-12T22:01:37.883Z,52.20
2018-01-12T22:04:05.104Z,60.23
2018-01-12T22:06:32.325Z,52.93
2018-01-12T22:08:59.637Z,53.67
2018-01-12T22:11:26.850Z,54.90
2018-01-12T22:13:54.066Z,59.97
2018-01-12T22:16:20.988Z,65.87
2018-01-12T22:18:48.227Z,54.43
2018-01-12T22:21:15.463Z,60.17
2018-01-12T22:23:42.677Z,61.63
2018-01-12T22:26:10.753Z,61.40
2018-01-12T22:28:37.980Z,60.37
2018-01-12T22:31:05.209Z,59.77
2018-01-12T22:33:32.424Z,66.60
2018-01-12T22:35:59.637Z,60.00
2018-01-12T22:38:26.856Z,57.47
2018-01-12T22:40:54.546Z,58.37
2018-01-12T22:43:21.784Z,52.33
2018-01-12T22:45:49.024Z,63.17
2018-01-12T22:48:16.254Z,61.20
2018-01-12T22:50:43.588Z,57.10
2018-01-12T22:53:11.352Z,66.63
2018-01-12T22:55:38.584Z,57.47
2018-01-12T22:58:05.822Z,63.50
2018-01-12T23:00:33.064Z,59.63
2018-01-12T23:03:00.298Z,60.10
2018-01-12T23:05:27.518Z,60.17
2018-01-12T23:07:54.749Z,61.17
2018-01-12T23:10:21.964Z,59.77
2018-01-12T23:12:49.185Z,60.90
2018-01-12T23:15:16.400Z,54.07
2018-01-12T23:17:43.637Z,68.00
2018-01-12T23:20:10.861Z,58.87
2018-01-12T23:22:38.114Z,58.80
2018-01-12T23:25:06.277Z,56.97
2018-01-12T23:27:33.513Z,58.03
2018-01-12T23:30:00.748Z,67.20
2018-01-12T23:32:27.978Z,61.57
2018-01-12T23:34:55.208Z,55.97
2018-01-12T23:37:22.450Z,66.37
2018-01-12T23:39:49.677Z,62.00
2018-01-12T23:42:16.911Z,56.90
2018-01-12T23:44:44.952Z,55.90
2018-01-12T23:47:12.184Z,56.50
2018-01-12T23:49:39.412Z,58.07
2018-01-12T23:52:06.638Z,60.20
2018-01-12T23:54:33.869Z,60.73
2018-01-12T23:57:01.088Z,65.07
2018-01-12T23:59:28.337Z,59.67
